Flight Track Log - Related Links

Times and Time Zones

All times are in EDT time to prevent confusion due to time zone crossing. See the JZA8557 flight status page for this flight to view local times or setup timezone preferences in your user account.

Time Position Orientation Groundspeed Altitude Reporting Facility
EDT Latitude Longitude Course Direction KTS MPH feet Rate Location/Type
Thu 09:17:01 PM 51.1167 -114.1000 242° Southwest 170 196 5,100  Level Edmonton Center
Thu 09:18:01 PM 51.1333 -114.1833 288° West 190 219 6,900 2,000 Climbing Edmonton Center
Thu 09:19:01 PM 51.1667 -114.2667 303° West 210 242 9,100 1,950 Climbing Edmonton Center
Thu 09:20:00 PM 51.0016 -114.5478 255° West  Level Estimated
Thu 09:20:01 PM 51.2000 -114.3500 303° West 220 253 10,800  Level Edmonton Center
Thu 09:21:00 PM 50.9707 -114.6692 248° West  Level FlightAware Approximate
Thu 09:21:01 PM 51.1667 -114.4333 237° Southwest 250 288 12,700  Level Edmonton Center
Thu 09:22:00 PM 50.9362 -114.7913 242° Southwest  Level FlightAware Approximate
Thu 09:22:01 PM 51.1167 -114.5000 220° Southwest 270 311 14,000  Level Edmonton Center
Thu 09:23:01 PM 51.0500 -114.6000 223° Southwest 280 322 15,500 1,400 Climbing Edmonton Center
Thu 09:24:01 PM 51.0333 -114.7000 255° West 270 311 16,800 1,300 Climbing Edmonton Center
Thu 09:25:01 PM 51.0333 -114.8333 270° West 280 322 18,100 1,250 Climbing Edmonton Center
Thu 09:26:01 PM 51.0333 -114.9500 270° West 280 322 19,300 1,150 Climbing Edmonton Center
Thu 09:27:01 PM 51.0333 -115.0833 270° West 280 322 20,400 1,100 Climbing Edmonton Center
Thu 09:28:01 PM 51.0167 -115.2000 257° West 290 334 21,500 1,050 Climbing Edmonton Center
Thu 09:29:01 PM 50.9833 -115.3167 246° West 290 334 22,500 1,000 Climbing Edmonton Center
Thu 09:30:01 PM 50.9667 -115.4333 257° West 280 322 23,500 700 Climbing Edmonton Center
Thu 09:31:01 PM 50.9333 -115.5667 248° West 290 334 23,900 250 Climbing Edmonton Center
Thu 09:32:01 PM 50.9167 -115.7000 259° West 300 345 24,000 50 Climbing Edmonton Center
Thu 09:33:01 PM 50.8833 -115.8333 248° West 320 368 24,000  Level Edmonton Center
Thu 09:34:01 PM 50.8667 -115.9500 257° West 320 368 24,000  Level Edmonton Center
Thu 09:35:01 PM 50.8333 -116.1000 251° West 320 368 24,000  Level Edmonton Center
Thu 09:36:01 PM 50.8167 -116.2333 259° West 310 357 24,000  Level Edmonton Center
Thu 09:37:01 PM 50.7833 -116.3667 248° West 310 357 24,000  Level Edmonton Center
Thu 09:38:01 PM 50.7500 -116.4833 246° West 310 357 24,000  Level Edmonton Center
Thu 09:39:01 PM 50.7167 -116.6167 248° West 310 357 24,000  Level Edmonton Center
Thu 09:41:01 PM 50.6667 -116.9000 255° West 310 357 24,000  Level Edmonton Center
Thu 09:42:01 PM 50.6500 -117.0333 259° West 310 357 24,000  Level Edmonton Center
Thu 09:43:01 PM 50.6167 -117.1500 246° West 310 357 24,000  Level Edmonton Center
Thu 09:44:01 PM 50.6000 -117.2833 259° West 310 357 24,000  Level Edmonton Center
Thu 09:45:01 PM 50.5667 -117.4000 246° West 310 357 24,000  Level Edmonton Center
Thu 09:46:01 PM 50.5333 -117.5333 249° West 320 368 24,000  Level Edmonton Center
Thu 09:47:01 PM 50.5000 -117.6667 249° West 320 368 24,000  Level Edmonton Center
Thu 09:48:01 PM 50.4667 -117.8167 251° West 320 368 24,000  Level Edmonton Center
Thu 09:49:01 PM 50.4500 -117.9333 257° West 320 368 24,000  Level Edmonton Center
Thu 09:50:01 PM 50.4167 -118.0833 251° West 320 368 24,000  Level Edmonton Center
Thu 09:51:01 PM 50.3833 -118.2167 249° West 320 368 24,000  Level Edmonton Center
Thu 09:52:01 PM 50.3500 -118.3333 246° West 320 368 24,000  Level Edmonton Center
Thu 09:53:01 PM 50.3167 -118.4833 251° West 330 380 24,000  Level Edmonton Center
Thu 09:54:01 PM 50.3000 -118.6167 259° West 330 380 24,000  Level Edmonton Center
Thu 09:55:01 PM 50.2667 -118.7667 251° West 340 391 24,000  Level Edmonton Center
Thu 09:56:01 PM 50.2333 -118.8833 246° West 340 391 24,000  Level Edmonton Center
Thu 09:57:01 PM 50.2000 -119.0333 251° West 340 391 24,000  Level Edmonton Center
Thu 09:58:01 PM 50.1667 -119.1667 249° West 340 391 24,000  Level Edmonton Center
Thu 09:59:01 PM 50.1167 -119.3167 243° Southwest 340 391 24,000  Level Edmonton Center
Thu 10:00:01 PM 50.1000 -119.4333 257° West 350 403 24,000  Level Edmonton Center
Thu 10:01:24 PM 50.0833 -119.5833 260° West 350 403 24,000  Level Vancouver Center
Thu 10:02:24 PM 50.0333 -119.7500 245° Southwest 350 403 24,000  Level Vancouver Center
Thu 10:03:24 PM 50.0000 -119.8833 249° West 360 414 24,000  Level Vancouver Center
Thu 10:04:24 PM 49.9667 -120.0333 251° West 360 414 24,000  Level Vancouver Center
Thu 10:05:24 PM 49.9333 -120.1667 249° West 360 414 24,000  Level Vancouver Center
Thu 10:06:24 PM 49.9000 -120.3167 251° West 360 414 24,000  Level Vancouver Center
Thu 10:07:24 PM 49.8500 -120.4500 240° Southwest 360 414 24,000  Level Vancouver Center
Thu 10:08:24 PM 49.8333 -120.6167 261° West 360 414 24,000  Level Vancouver Center
Thu 10:09:24 PM 49.8000 -120.7500 249° West 360 414 24,000  Level Vancouver Center
Thu 10:10:24 PM 49.7667 -120.9000 251° West 360 414 24,000  Level Vancouver Center
Thu 10:11:24 PM 49.7167 -121.0667 245° Southwest 360 414 24,000  Level Vancouver Center
Thu 10:12:24 PM 49.7000 -121.2000 259° West 360 414 24,000  Level Vancouver Center
Thu 10:13:24 PM 49.6667 -121.3167 246° West 360 414 24,000  Level Vancouver Center
Thu 10:14:24 PM 49.6333 -121.4833 253° West 360 414 24,000  Level Vancouver Center
Thu 10:15:24 PM 49.6000 -121.6333 251° West 360 414 24,000  Level Vancouver Center
Thu 10:16:24 PM 49.5667 -121.7833 251° West 360 414 24,000  Level Vancouver Center
Thu 10:17:24 PM 49.5333 -121.9167 249° West 360 414 24,000 -200 Level Vancouver Center
Thu 10:18:24 PM 49.5000 -122.0833 253° West 350 403 23,600 -950 Descending Vancouver Center
Thu 10:19:24 PM 49.4500 -122.2000 237° Southwest 370 426 22,100 -1,550 Descending Vancouver Center
Thu 10:20:24 PM 49.3833 -122.3333 233° Southwest 390 449 20,500 -1,600 Descending Vancouver Center
Thu 10:21:24 PM 49.3333 -122.5000 245° Southwest 390 449 18,900 -1,600 Descending Vancouver Center
Thu 10:22:24 PM 49.2667 -122.6167 229° Southwest 390 449 17,300 -950 Descending Vancouver Center
Thu 10:23:24 PM 49.2167 -122.7500 240° Southwest 370 426 17,000 -150 Descending Vancouver Center
Thu 10:24:24 PM 49.1667 -122.8833 240° Southwest 360 414 17,000 -350 Level Vancouver Center
Thu 10:25:24 PM 49.1167 -123.0167 240° Southwest 360 414 16,300 -1,250 Descending Vancouver Center
Thu 10:26:24 PM 49.0500 -123.1333 229° Southwest 360 414 14,500 -1,750 Descending Vancouver Center
Thu 10:27:24 PM 48.9667 -123.2167 213° Southwest 360 414 12,800 -1,750 Descending Vancouver Center
Thu 10:28:24 PM 48.8833 -123.2667 202° Southwest 340 391 11,000 -1,800 Descending Vancouver Center
Thu 10:29:24 PM 48.8167 -123.3500 219° Southwest 310 357 9,200 -1,750 Descending Vancouver Center
Thu 10:30:24 PM 48.7833 -123.4500 243° Southwest 270 311 7,500 -1,600 Descending Vancouver Center
Thu 10:31:24 PM 48.7833 -123.5667 270° West 260 299 6,000 -1,050 Descending Vancouver Center
Thu 10:32:24 PM 48.7500 -123.6167 225° Southwest 210 242 5,400 -850 Descending Vancouver Center
Thu 10:33:24 PM 48.7000 -123.6500 204° Southwest 200 230 4,300 -1,350 Descending Vancouver Center
Thu 10:34:24 PM 48.6667 -123.6000 135° Southeast 180 207 2,700 -1,450 Descending Vancouver Center
Thu 10:35:24 PM 48.6500 -123.5167 107° East 170 196 1,400 -1,150 Descending Vancouver Center
Thu 10:36:24 PM 48.6333 -123.4667 117° Southeast 150 173 400 -1,000 Descending Vancouver Center

Login

Don't have an account? Register now (free) for customized features, flight alerts, and more!